Time;durP1;ratioP1;P1;durP2;ratioP2;P2;SDS_P1;SDS_P2;PMS_P1;PMS_P2;Temp;Humidity;BMP_temperature;BMP_pressure;BME280_temperature;BME280_humidity;BME280_pressure;Samples;Min_cycle;Max_cycle;Signal;HPM_P1;HPM_P2
2022/01/18 00:00:07;;;;;;;4.77;1.40;;;;;;;2.38;49.16;101406.09;5365548;32;34798;-70
2022/01/18 00:03:09;;;;;;;5.53;1.60;;;;;;;2.31;49.26;101418.97;5359881;32;35358;-69
2022/01/18 00:06:11;;;;;;;5.13;1.60;;;;;;;2.17;49.70;101411.03;5364931;32;34981;-69
2022/01/18 00:09:13;;;;;;;2.87;1.10;;;;;;;2.14;49.89;101421.38;5370070;32;34463;-70
2022/01/18 00:19:10;;;;;;;7.90;1.83;;;;;;;2.25;49.69;101429.28;5368694;32;35211;-70
2022/01/18 00:22:13;;;;;;;6.67;1.50;;;;;;;2.09;50.15;101436.87;5365929;32;35945;-69
2022/01/18 00:25:17;;;;;;;8.52;1.83;;;;;;;2.10;50.54;101448.13;5368990;32;35090;-70
2022/01/18 00:28:20;;;;;;;;;;;;;;;2.20;50.23;101450.00;5368549;32;44951;-70
2022/01/18 00:31:37;;;;;;;13.57;2.13;;;;;;;2.27;50.23;101446.63;5370251;32;36167;-69
2022/01/18 00:34:41;;;;;;;7.47;1.80;;;;;;;2.20;50.21;101451.72;5366201;32;35433;-70
2022/01/18 00:37:52;;;;;;;7.87;2.12;;;;;;;2.07;50.49;101464.53;5364778;32;36748;-70
2022/01/18 00:40:54;;;;;;;8.60;1.90;;;;;;;2.48;49.72;101466.72;5371458;32;44701;-70
2022/01/18 00:43:56;;;;;;;5.73;1.33;;;;;;;2.05;50.56;101481.75;5370619;32;35298;-70
2022/01/18 00:46:59;;;;;;;5.50;1.90;;;;;;;2.02;51.34;101489.53;5371234;32;33941;-70
2022/01/18 00:50:03;;;;;;;5.47;1.50;;;;;;;2.30;50.28;101502.84;5366206;32;34983;-70
2022/01/18 00:53:10;;;;;;;6.30;2.20;;;;;;;1.80;51.27;101503.03;5380533;32;35369;-70
2022/01/18 00:59:15;;;;;;;5.93;2.40;;;;;;;1.54;52.09;101500.91;5356738;32;35547;-70
2022/01/18 01:02:17;;;;;;;6.73;1.73;;;;;;;2.33;50.73;101502.91;5363880;32;45927;-70
2022/01/18 01:05:20;;;;;;;5.53;1.90;;;;;;;1.54;52.36;101516.44;5357780;32;34580;-70
2022/01/18 01:08:22;;;;;;;10.77;2.13;;;;;;;1.59;53.05;101519.13;5385270;32;35131;-70
2022/01/18 01:11:25;;;;;;;4.03;1.60;;;;;;;1.53;52.77;101521.63;5363602;32;35953;-70
2022/01/18 01:14:28;;;;;;;6.73;1.70;;;;;;;1.69;52.41;101520.16;5375713;32;35039;-72
2022/01/18 01:17:49;;;;;;;5.87;1.65;;;;;;;1.59;52.28;101504.44;5381187;32;35522;-71
2022/01/18 01:44:38;;;;;;;8.73;2.30;;;;;;;1.77;52.34;101532.37;5373598;32;34624;-70
2022/01/18 01:47:40;;;;;;;8.57;2.07;;;;;;;1.81;52.76;101552.31;5364276;32;35512;-70
2022/01/18 01:51:02;;;;;;;5.73;1.97;;;;;;;2.08;52.19;101553.56;5366969;32;36593;-70
2022/01/18 01:54:08;;;;;;;10.10;2.50;;;;;;;1.82;53.08;101541.09;5364743;32;35208;-69
2022/01/18 01:57:10;;;;;;;7.27;2.10;;;;;;;1.72;53.80;101561.66;5338566;32;35351;-69
2022/01/18 02:00:16;;;;;;;5.73;1.87;;;;;;;1.79;53.79;101563.50;5364091;32;35330;-70
2022/01/18 02:03:19;;;;;;;4.77;1.60;;;;;;;1.83;53.70;101555.78;5351546;32;44553;-70
2022/01/18 02:06:23;;;;;;;5.63;1.57;;;;;;;1.55;54.45;101567.47;5367584;32;35480;-70
2022/01/18 02:09:25;;;;;;;7.25;2.20;;;;;;;2.26;52.81;101552.97;5362927;32;35259;-70
2022/01/18 02:12:27;;;;;;;9.13;1.90;;;;;;;2.23;53.02;101566.75;5377267;32;35628;-72
2022/01/18 02:15:29;;;;;;;11.23;2.00;;;;;;;2.06;53.33;101576.91;5374941;32;35276;-69
2022/01/18 02:21:55;;;;;;;6.20;1.80;;;;;;;2.58;51.23;101587.09;5370885;32;45574;-70
2022/01/18 02:24:57;;;;;;;6.63;1.70;;;;;;;2.90;50.53;101592.69;5364087;32;36715;-70
2022/01/18 02:27:59;;;;;;;10.13;2.10;;;;;;;2.51;51.58;101604.28;5367266;32;35395;-69
2022/01/18 02:31:01;;;;;;;7.63;2.07;;;;;;;1.98;52.77;101612.19;5364028;32;35269;-69
2022/01/18 02:34:08;;;;;;;8.63;2.00;;;;;;;2.16;53.55;101602.09;5362536;32;34401;-72
2022/01/18 02:37:14;;;;;;;9.33;2.00;;;;;;;2.21;53.31;101609.09;5370225;32;35332;-71
2022/01/18 02:40:16;;;;;;;8.53;2.10;;;;;;;2.34;52.11;101601.50;5360095;32;45169;-72
2022/01/18 02:46:42;;;;;;;5.03;1.70;;;;;;;2.67;51.58;101606.25;5365933;32;35440;-69
2022/01/18 02:49:44;;;;;;;8.50;2.13;;;;;;;2.61;51.72;101619.16;5363435;32;35449;-70
2022/01/18 02:52:46;;;;;;;7.60;2.00;;;;;;;2.36;52.30;101624.84;5366859;32;44912;-70
2022/01/18 02:55:52;;;;;;;14.70;4.53;;;;;;;2.48;52.06;101625.03;5345240;32;36387;-70
2022/01/18 02:59:03;;;;;;;8.73;2.00;;;;;;;2.46;52.69;101613.78;5357739;32;35255;-69
2022/01/18 03:05:46;;;;;;;11.30;2.10;;;;;;;2.04;53.59;101624.38;5359289;32;34539;-71
2022/01/18 03:08:48;;;;;;;6.37;1.73;;;;;;;2.95;51.10;101627.34;5371363;32;35721;-71
2022/01/18 03:11:50;;;;;;;5.60;1.97;;;;;;;1.71;53.48;101648.91;5365774;32;35489;-71
2022/01/18 03:14:53;;;;;;;9.27;3.03;;;;;;;1.86;53.59;101643.09;5371897;32;36421;-70
2022/01/18 03:17:55;;;;;;;9.60;1.90;;;;;;;2.40;52.29;101648.28;5366818;32;34494;-70
2022/01/18 03:20:57;;;;;;;14.07;2.20;;;;;;;1.71;53.89;101666.19;5362081;32;35052;-70
2022/01/18 03:24:21;;;;;;;5.97;1.87;;;;;;;1.93;53.64;101667.41;5366154;32;35749;-69
2022/01/18 03:30:47;;;;;;;8.17;2.30;;;;;;;2.01;53.62;101682.28;5369027;32;36738;-70
2022/01/18 03:33:50;;;;;;;5.40;1.70;;;;;;;1.79;54.38;101682.72;5365352;32;44983;-70
2022/01/18 03:36:53;;;;;;;7.17;1.70;;;;;;;1.95;53.76;101692.53;5371105;32;35648;-70
2022/01/18 03:39:55;;;;;;;8.83;2.00;;;;;;;2.04;53.56;101695.28;5361666;32;34770;-70
2022/01/18 03:42:58;;;;;;;7.70;1.73;;;;;;;1.44;55.73;101714.06;5362147;32;35872;-70
2022/01/18 03:46:04;;;;;;;7.23;2.00;;;;;;;1.43;55.89;101712.34;5373940;32;35136;-70
2022/01/18 03:49:07;;;;;;;4.63;1.80;;;;;;;1.66;54.95;101704.97;5363021;32;34745;-69
2022/01/18 03:52:09;;;;;;;3.93;1.57;;;;;;;1.47;55.54;101716.72;5370409;32;34569;-69
2022/01/18 03:55:13;;;;;;;4.87;1.63;;;;;;;1.60;55.63;101717.81;5344777;32;36392;-69
2022/01/18 03:58:16;;;;;;;7.77;2.03;;;;;;;1.88;54.44;101725.25;5355497;32;35306;-69
2022/01/18 04:01:18;;;;;;;12.27;2.30;;;;;;;1.33;56.09;101724.22;5353324;32;47340;-72
2022/01/18 04:04:26;;;;;;;8.13;1.77;;;;;;;1.70;54.33;101730.12;5355191;32;35404;-71
2022/01/18 04:07:28;;;;;;;8.67;2.07;;;;;;;1.85;54.07;101732.09;5382208;32;36261;-71
2022/01/18 04:10:30;;;;;;;5.60;1.33;;;;;;;1.74;54.70;101736.22;5362336;32;35391;-71
2022/01/18 04:13:32;;;;;;;9.03;1.93;;;;;;;1.42;55.29;101745.97;5365733;32;35184;-71
2022/01/18 04:16:43;;;;;;;8.93;2.40;;;;;;;1.53;55.25;101734.97;5368989;32;35903;-71
2022/01/18 04:29:26;;;;;;;8.77;1.90;;;;;;;1.40;55.31;101747.66;5383223;32;37415;-70
2022/01/18 04:32:28;;;;;;;10.80;2.03;;;;;;;1.70;54.89;101748.25;5366139;32;35804;-69
2022/01/18 04:35:31;;;;;;;3.80;1.47;;;;;;;1.80;54.42;101734.63;5364085;32;35391;-69
2022/01/18 04:38:35;;;;;;;7.23;1.87;;;;;;;2.16;53.90;101746.47;5371475;32;34698;-69
2022/01/18 04:41:37;;;;;;;12.13;1.70;;;;;;;1.79;53.88;101752.72;5364917;32;35977;-70
2022/01/18 04:51:21;;;;;;;4.60;1.53;;;;;;;2.00;53.95;101767.81;5367884;32;46272;-68
2022/01/18 04:54:29;;;;;;;9.97;2.40;;;;;;;2.08;53.30;101774.00;5382282;32;36521;-70
2022/01/18 05:00:54;;;;;;;6.57;2.23;;;;;;;1.57;54.40;101773.06;5364805;32;46626;-70
2022/01/18 05:03:56;;;;;;;7.73;1.83;;;;;;;1.24;54.96;101770.66;5365821;32;34874;-69
2022/01/18 05:07:00;;;;;;;6.00;2.50;;;;;;;1.34;55.06;101777.75;5367891;32;34897;-71
2022/01/18 05:10:03;;;;;;;12.83;2.10;;;;;;;1.60;54.64;101775.69;5352528;32;35047;-71
2022/01/18 05:13:27;;;;;;;8.53;1.70;;;;;;;1.51;55.38;101785.91;5369390;32;34858;-71
2022/01/18 05:19:48;;;;;;;7.43;2.10;;;;;;;1.85;54.36;101782.22;5367091;32;35904;-70
2022/01/18 05:23:01;;;;;;;7.03;1.80;;;;;;;1.72;54.51;101797.53;5364766;32;47624;-70
2022/01/18 05:26:04;;;;;;;9.10;2.70;;;;;;;2.15;53.46;101789.72;5365582;32;35877;-70
2022/01/18 05:29:06;;;;;;;8.13;1.97;;;;;;;1.59;54.88;101794.69;5381298;32;35071;-70
2022/01/18 05:32:08;;;;;;;13.87;3.43;;;;;;;2.03;54.19;101797.25;5380142;32;35711;-69
2022/01/18 05:35:11;;;;;;;9.53;2.13;;;;;;;2.20;53.47;101801.91;5367520;32;34737;-70
2022/01/18 05:38:14;;;;;;;9.93;2.37;;;;;;;2.03;54.37;101817.13;5384731;32;35056;-70
2022/01/18 05:41:16;;;;;;;9.37;2.10;;;;;;;2.01;54.47;101817.13;5365500;32;46878;-70
2022/01/18 05:44:18;;;;;;;11.03;3.20;;;;;;;1.84;55.10;101821.97;5363195;32;35135;-70
2022/01/18 05:47:20;;;;;;;9.67;1.90;;;;;;;1.61;55.21;101826.72;5366653;32;35850;-72
2022/01/18 05:50:27;;;;;;;10.90;2.13;;;;;;;1.61;56.00;101824.13;5359679;32;34463;-69
2022/01/18 05:53:31;;;;;;;8.17;2.27;;;;;;;1.78;55.99;101840.00;5373177;32;35613;-71
2022/01/18 05:56:33;;;;;;;11.77;3.03;;;;;;;1.76;56.22;101833.03;5334569;32;34474;-69
2022/01/18 05:59:38;;;;;;;7.93;2.17;;;;;;;2.08;54.99;101831.94;5362948;32;35142;-70
2022/01/18 06:09:03;;;;;;;8.40;2.20;;;;;;;1.27;57.76;101827.69;5382969;32;37031;-70
2022/01/18 06:12:06;;;;;;;10.97;3.30;;;;;;;1.16;57.92;101830.88;5362015;32;35367;-70
2022/01/18 06:15:08;;;;;;;9.13;2.53;;;;;;;0.67;60.06;101829.75;5371674;32;35396;-70
2022/01/18 06:18:10;;;;;;;10.00;2.50;;;;;;;1.05;59.47;101821.19;5355967;32;35742;-70
2022/01/18 06:21:12;;;;;;;7.90;2.50;;;;;;;1.37;58.52;101826.19;5368412;32;36059;-71
2022/01/18 06:24:15;;;;;;;5.57;1.90;;;;;;;1.10;59.72;101817.84;5351357;32;35482;-70
2022/01/18 06:27:37;;;;;;;9.00;2.50;;;;;;;0.80;60.46;101817.16;5365483;32;35594;-71
2022/01/18 06:30:40;;;;;;;7.37;1.97;;;;;;;0.46;61.84;101807.72;5366702;32;34487;-74
2022/01/18 06:33:42;;;;;;;7.43;2.47;;;;;;;0.58;61.88;101804.56;5362260;32;34546;-70
2022/01/18 06:36:44;;;;;;;12.57;2.50;;;;;;;0.62;61.60;101815.84;5367704;32;35792;-68
2022/01/18 06:39:46;;;;;;;13.60;3.50;;;;;;;0.62;61.88;101819.28;5362071;32;45799;-61
2022/01/18 06:42:49;;;;;;;6.83;1.90;;;;;;;0.42;62.86;101826.56;5361192;32;34549;-73
2022/01/18 06:45:51;;;;;;;13.03;2.43;;;;;;;0.63;61.79;101815.00;5363955;32;36111;-71
2022/01/18 06:48:53;;;;;;;8.60;2.90;;;;;;;1.11;61.27;101811.81;5360331;32;36310;-63
2022/01/18 06:52:03;;;;;;;8.53;2.10;;;;;;;0.59;62.28;101827.00;5357683;32;35514;-72
2022/01/18 06:55:07;;;;;;;10.17;3.23;;;;;;;0.76;62.16;101822.22;5341993;32;35515;-81
2022/01/18 06:58:10;;;;;;;9.40;2.47;;;;;;;0.49;63.41;101832.75;5341870;32;36994;-73
2022/01/18 07:01:13;;;;;;;9.93;1.97;;;;;;;0.81;62.54;101841.31;5362342;32;35162;-69
2022/01/18 07:04:15;;;;;;;9.00;2.57;;;;;;;0.87;62.10;101825.94;5357472;32;36047;-67
2022/01/18 07:07:18;;;;;;;13.07;2.63;;;;;;;0.74;62.13;101842.00;5361572;32;44680;-70
2022/01/18 07:10:20;;;;;;;11.97;2.83;;;;;;;0.76;61.58;101840.31;5368501;32;35804;-69
2022/01/18 07:13:24;;;;;;;9.88;2.17;;;;;;;0.99;61.19;101839.16;5372878;32;34460;-68
2022/01/18 07:16:26;;;;;;;7.60;2.27;;;;;;;0.96;61.37;101841.66;5363947;32;35878;-69
2022/01/18 07:19:32;;;;;;;11.47;2.10;;;;;;;1.15;60.73;101855.91;5363752;32;34310;-72
2022/01/18 07:22:34;;;;;;;15.63;2.93;;;;;;;1.07;60.74;101824.66;5363356;32;34525;-67
2022/01/18 07:25:46;;;;;;;6.47;2.55;;;;;;;0.93;61.18;101831.25;5364968;32;34216;-74
2022/01/18 07:28:49;;;;;;;11.37;2.47;;;;;;;1.05;60.80;101809.94;5359542;32;44445;-70
2022/01/18 07:31:52;;;;;;;9.27;2.40;;;;;;;1.15;60.47;101832.59;5356911;32;35640;-68
2022/01/18 07:34:56;;;;;;;8.43;2.60;;;;;;;1.00;60.81;101820.19;5358300;32;35559;-72
2022/01/18 07:38:00;;;;;;;15.07;2.93;;;;;;;1.21;60.54;101817.19;5357227;32;34117;-72
2022/01/18 07:41:03;;;;;;;;;;;;;;;1.17;60.61;101825.75;5358126;32;35774;-69
2022/01/18 07:44:05;;;;;;;12.57;3.20;;;;;;;1.24;60.32;101832.81;5360470;32;35345;-69
2022/01/18 07:47:08;;;;;;;12.10;3.27;;;;;;;1.65;59.70;101852.69;5360833;32;34411;-71
2022/01/18 07:50:10;;;;;;;7.67;2.17;;;;;;;1.11;60.89;101848.06;5364029;32;35103;-76
2022/01/18 07:53:12;;;;;;;8.60;2.60;;;;;;;1.27;60.81;101856.19;5363229;32;34483;-69
2022/01/18 07:56:14;;;;;;;6.10;2.47;;;;;;;0.98;61.56;101858.13;5333072;32;34172;-75
2022/01/18 07:59:17;;;;;;;8.60;2.80;;;;;;;1.45;60.33;101868.69;5357158;32;44651;-71
2022/01/18 08:02:19;;;;;;;9.87;3.63;;;;;;;1.13;61.92;101885.22;5360698;32;35592;-77
2022/01/18 08:05:22;;;;;;;10.30;3.13;;;;;;;1.60;60.53;101899.22;5361136;32;34556;-72
2022/01/18 08:08:26;;;;;;;13.20;3.37;;;;;;;0.93;62.47;101908.03;5364572;32;34476;-75
2022/01/18 08:11:28;;;;;;;8.90;3.20;;;;;;;1.10;61.81;101911.06;5362578;32;35703;-72
2022/01/18 08:14:32;;;;;;;14.80;2.83;;;;;;;1.29;61.17;101915.81;5372309;32;34872;-70
2022/01/18 08:17:34;;;;;;;12.50;2.70;;;;;;;1.22;62.04;101932.91;5365551;32;36651;-71
2022/01/18 08:20:37;;;;;;;14.33;3.87;;;;;;;1.40;60.96;101932.47;5364516;32;35822;-70
2022/01/18 08:23:39;;;;;;;11.70;3.27;;;;;;;1.80;59.98;101931.66;5371407;32;35972;-66
2022/01/18 08:26:41;;;;;;;12.30;2.90;;;;;;;1.97;59.08;101944.09;5368324;32;34676;-61
2022/01/18 08:29:43;;;;;;;10.37;3.00;;;;;;;1.70;59.72;101934.87;5363759;32;34433;-65
2022/01/18 08:32:50;;;;;;;9.43;2.93;;;;;;;1.92;59.41;101940.50;5363088;32;43641;-63
2022/01/18 08:35:54;;;;;;;11.80;3.10;;;;;;;1.51;59.84;101950.84;5361268;32;34467;-64
2022/01/18 08:38:57;;;;;;;19.00;4.10;;;;;;;1.63;59.70;101962.37;5363016;32;34528;-65
2022/01/18 08:42:00;;;;;;;12.80;3.20;;;;;;;1.80;59.16;101970.53;5361653;32;35515;-73
2022/01/18 08:45:03;;;;;;;19.43;3.93;;;;;;;2.06;58.91;101962.41;5348826;32;35536;-71
2022/01/18 08:48:06;;;;;;;14.30;3.63;;;;;;;1.98;58.93;101949.28;5359948;32;36280;-74
2022/01/18 08:51:09;;;;;;;13.43;3.67;;;;;;;2.10;58.15;101961.66;5360822;32;34726;-71
2022/01/18 08:54:11;;;;;;;12.30;3.70;;;;;;;2.32;58.06;101956.06;5365735;32;35842;-71
2022/01/18 08:57:14;;;;;;;8.33;3.17;;;;;;;1.80;59.07;101975.72;5331117;32;34519;-74
2022/01/18 09:00:18;;;;;;;13.77;3.60;;;;;;;2.20;58.40;101970.50;5356816;32;44060;-64
2022/01/18 09:03:21;;;;;;;10.33;3.93;;;;;;;2.18;58.03;101978.22;5352334;32;36583;-63
2022/01/18 09:06:25;;;;;;;12.13;4.07;;;;;;;2.03;58.24;101978.81;5364481;32;35432;-62
2022/01/18 09:09:28;;;;;;;10.75;2.97;;;;;;;2.21;57.76;101977.44;5367170;32;35002;-67
2022/01/18 09:12:30;;;;;;;16.20;4.17;;;;;;;2.73;57.25;101984.50;5363649;32;34311;-63
2022/01/18 09:15:32;;;;;;;11.47;3.13;;;;;;;2.24;58.36;101993.06;5367482;32;34370;-62
2022/01/18 09:18:35;;;;;;;10.83;4.30;;;;;;;2.76;57.29;101981.97;5365836;32;33494;-65
2022/01/18 09:21:38;;;;;;;11.23;3.53;;;;;;;2.28;57.87;101992.28;5361983;32;34437;-65
2022/01/18 09:24:40;;;;;;;13.73;3.70;;;;;;;2.06;58.16;102003.91;5367893;32;35640;-59
2022/01/18 09:27:43;;;;;;;16.73;4.20;;;;;;;2.33;57.95;102008.84;5363986;32;35803;-61
2022/01/18 09:30:48;;;;;;;7.80;3.10;;;;;;;2.36;57.54;102004.56;5363053;32;34741;-62
2022/01/18 09:33:51;;;;;;;12.13;3.10;;;;;;;2.34;57.41;101995.87;5358833;32;44365;-68
2022/01/18 09:36:53;;;;;;;8.10;3.00;;;;;;;2.53;57.36;101988.47;5365767;32;35402;-69
2022/01/18 09:39:55;;;;;;;11.00;3.13;;;;;;;2.47;57.16;102003.91;5360509;32;34509;-73
2022/01/18 09:43:00;;;;;;;10.17;3.10;;;;;;;2.88;56.59;102009.87;5375254;32;34559;-71
2022/01/18 09:46:02;;;;;;;9.27;3.40;;;;;;;2.85;55.79;102015.03;5364952;32;35869;-73
2022/01/18 09:49:05;;;;;;;12.43;3.00;;;;;;;2.35;57.20;102026.16;5359521;32;34596;-77
2022/01/18 09:52:08;;;;;;;10.63;2.77;;;;;;;2.48;56.80;102021.22;5371524;32;35455;-80
2022/01/18 09:55:10;;;;;;;11.00;2.83;;;;;;;2.93;55.36;102029.91;5363924;32;34410;-74
2022/01/18 09:58:14;;;;;;;10.17;3.10;;;;;;;2.99;55.29;102031.75;5355686;32;34679;-70
2022/01/18 10:01:18;;;;;;;14.53;3.50;;;;;;;3.15;54.89;102022.47;5362003;32;44329;-70
2022/01/18 10:04:25;;;;;;;9.98;2.90;;;;;;;3.28;54.70;102018.38;5365336;32;35652;-77
2022/01/18 10:07:35;;;;;;;8.93;3.33;;;;;;;2.88;55.55;102026.34;5357712;32;34559;-72
2022/01/18 10:10:53;;;;;;;11.57;3.47;;;;;;;2.71;56.05;102027.75;5357554;32;36611;-69
2022/01/18 10:13:56;;;;;;;9.20;2.90;;;;;;;3.01;55.33;102009.25;5371118;32;45799;-75
2022/01/18 10:16:59;;;;;;;9.60;2.83;;;;;;;3.48;54.61;102024.78;5367378;32;34988;-75
2022/01/18 10:20:14;;;;;;;11.37;3.33;;;;;;;3.67;53.71;102021.62;5358877;32;35420;-80
2022/01/18 10:23:23;;;;;;;12.63;3.70;;;;;;;3.58;54.15;102013.66;5346381;32;37765;-70
2022/01/18 10:26:25;;;;;;;15.53;3.20;;;;;;;3.28;54.72;102024.44;5355292;32;34628;-71
2022/01/18 10:29:33;;;;;;;13.97;3.10;;;;;;;2.86;55.06;102014.19;5368369;32;34502;-73
2022/01/18 10:32:41;;;;;;;9.97;3.00;;;;;;;3.49;53.98;102005.75;5365200;32;34601;-77
2022/01/18 10:36:10;;;;;;;11.73;3.20;;;;;;;3.94;52.86;101997.75;5362379;32;35263;-77
2022/01/18 10:39:20;;;;;;;12.27;3.00;;;;;;;3.70;52.97;102000.84;5363000;32;33323;-79
2022/01/18 10:42:30;;;;;;;15.00;3.60;;;;;;;4.08;51.59;102008.31;5358364;32;44247;-79
2022/01/18 10:45:37;;;;;;;12.73;3.20;;;;;;;4.62;50.16;102012.44;5367060;32;35666;-72
2022/01/18 10:48:47;;;;;;;10.63;3.40;;;;;;;5.48;47.82;102018.50;5376686;32;35745;-79
2022/01/18 10:51:56;;;;;;;10.27;3.33;;;;;;;4.91;49.17;102015.38;5362338;32;43839;-76
2022/01/18 10:55:00;;;;;;;13.83;2.40;;;;;;;5.60;47.14;102006.44;5355375;32;33150;-74
2022/01/18 10:58:29;;;;;;;9.60;2.50;;;;;;;5.95;45.90;101997.97;5344534;32;34446;-86
2022/01/18 11:01:31;;;;;;;13.43;2.70;;;;;;;6.25;45.33;102007.72;5360060;32;35348;-74
2022/01/18 11:04:34;;;;;;;14.50;3.40;;;;;;;4.77;48.50;102014.38;5363992;32;34367;-76
2022/01/18 11:07:38;;;;;;;10.50;3.10;;;;;;;4.36;49.49;102014.75;5364700;32;36078;-80
2022/01/18 11:10:43;;;;;;;9.43;3.00;;;;;;;5.03;48.63;102009.41;5366451;32;34672;-77
2022/01/18 11:14:07;;;;;;;9.40;2.67;;;;;;;5.72;46.29;101976.91;5360822;32;34753;-77
2022/01/18 11:17:14;;;;;;;8.30;2.70;;;;;;;6.06;45.34;101985.00;5365024;32;35860;-78
2022/01/18 11:20:20;;;;;;;12.37;2.93;;;;;;;4.80;48.27;101997.03;5367489;32;45203;-73
2022/01/18 11:23:23;;;;;;;9.50;3.17;;;;;;;4.81;48.09;102003.97;5365704;32;34453;-66
2022/01/18 11:26:32;;;;;;;6.13;2.47;;;;;;;5.03;48.12;102025.94;5362813;32;36119;-75
2022/01/18 11:29:35;;;;;;;9.70;2.77;;;;;;;4.42;49.52;102025.25;5363133;32;35720;-76
2022/01/18 11:32:38;;;;;;;12.33;2.77;;;;;;;4.20;50.80;102023.25;5367808;32;35140;-76
2022/01/18 11:35:46;;;;;;;6.87;2.30;;;;;;;4.31;50.32;102039.84;5371099;32;35874;-76
2022/01/18 11:38:54;;;;;;;13.10;3.20;;;;;;;4.21;50.34;102033.66;5364818;32;44123;-67
2022/01/18 11:42:08;;;;;;;12.00;2.73;;;;;;;4.56;49.61;102052.31;5369294;32;34495;-73
2022/01/18 11:45:25;;;;;;;9.63;2.92;;;;;;;6.30;46.19;102039.91;5365009;32;34630;-71
2022/01/18 11:48:29;;;;;;;12.43;3.53;;;;;;;5.66;46.87;102042.97;5368072;32;34463;-70
2022/01/18 11:51:36;;;;;;;11.23;3.33;;;;;;;5.08;48.85;102041.59;5363071;32;35765;-71
2022/01/18 11:57:41;;;;;;;9.98;2.80;;;;;;;6.51;45.43;102013.91;5342912;32;34384;-76
2022/01/18 12:00:56;;;;;;;12.87;3.03;;;;;;;5.98;45.53;102013.63;5366618;32;36961;-78
2022/01/18 12:04:03;;;;;;;11.10;3.00;;;;;;;5.62;47.22;102011.66;5352745;32;33205;-82
2022/01/18 12:07:11;;;;;;;12.67;3.53;;;;;;;4.88;48.44;102010.13;5367590;32;35854;-77
2022/01/18 12:10:19;;;;;;;10.00;3.20;;;;;;;5.77;46.96;102000.44;5364166;32;34514;-76
2022/01/18 12:13:34;;;;;;;10.87;3.17;;;;;;;7.34;42.65;101982.63;5359451;32;44482;-75
2022/01/18 12:16:48;;;;;;;15.23;3.50;;;;;;;6.05;45.55;101989.31;5358165;32;34296;-77
2022/01/18 12:19:50;;;;;;;9.88;3.25;;;;;;;6.08;46.28;102005.00;5359754;32;44399;-76
2022/01/18 12:22:59;;;;;;;10.47;3.20;;;;;;;5.77;46.38;101996.09;5362194;32;34310;-74
2022/01/18 12:32:40;;;;;;;8.37;2.53;;;;;;;7.13;43.84;102017.50;5345263;32;35929;-79
2022/01/18 12:35:43;;;;;;;9.73;2.70;;;;;;;6.21;45.11;102022.47;5355562;32;35767;-71
2022/01/18 12:38:57;;;;;;;8.40;2.70;;;;;;;5.49;46.89;102028.94;5360032;32;35601;-68
2022/01/18 12:42:01;;;;;;;8.02;2.83;;;;;;;5.81;46.10;102023.97;5359367;32;34581;-66
2022/01/18 12:45:22;;;;;;;13.37;2.97;;;;;;;5.21;48.12;102027.81;5363325;32;35818;-67
2022/01/18 12:48:25;;;;;;;10.33;3.33;;;;;;;5.39;47.66;102034.94;5367845;32;44247;-75
2022/01/18 12:51:27;;;;;;;10.40;3.23;;;;;;;4.70;48.83;102042.09;5368499;32;34640;-73
2022/01/18 12:54:40;;;;;;;11.00;2.97;;;;;;;4.67;49.24;102052.44;5361842;32;34395;-73
2022/01/18 12:58:06;;;;;;;13.27;3.53;;;;;;;5.05;48.42;102054.59;5341728;32;35921;-76
2022/01/18 13:01:11;;;;;;;13.33;3.20;;;;;;;5.16;48.93;102050.37;5348616;32;35987;-71
2022/01/18 13:04:13;;;;;;;9.63;2.80;;;;;;;4.92;48.43;102051.00;5350146;32;36675;-73
2022/01/18 13:07:16;;;;;;;12.77;3.60;;;;;;;5.40;47.95;102041.88;5365537;32;34000;-79
2022/01/18 13:10:19;;;;;;;13.87;3.13;;;;;;;4.94;48.91;102036.25;5376893;32;45153;-81
2022/01/18 13:13:29;;;;;;;12.53;3.40;;;;;;;5.00;48.97;102040.66;5370561;32;34435;-81
2022/01/18 13:23:08;;;;;;;11.70;3.40;;;;;;;4.78;48.84;102036.97;5369649;32;34625;-80
2022/01/18 13:26:11;;;;;;;11.60;3.30;;;;;;;5.70;46.99;102049.97;5370963;32;36432;-83
2022/01/18 13:29:21;;;;;;;10.65;3.00;;;;;;;5.39;47.47;102045.34;5357324;32;35986;-79
2022/01/18 13:32:31;;;;;;;6.57;2.60;;;;;;;5.15;47.74;102054.72;5357931;32;44467;-78
2022/01/18 13:35:34;;;;;;;11.00;2.83;;;;;;;4.63;49.27;102046.31;5353152;32;34271;-81
2022/01/18 13:38:36;;;;;;;10.47;2.70;;;;;;;5.06;47.84;102045.91;5365096;32;34499;-75
2022/01/18 13:41:38;;;;;;;10.63;2.73;;;;;;;4.93;48.72;102064.91;5364109;32;34728;-82
2022/01/18 13:45:18;;;;;;;9.87;2.93;;;;;;;5.36;47.17;102058.38;5360610;32;35824;-80
2022/01/18 13:48:31;;;;;;;6.97;2.30;;;;;;;6.23;45.47;102043.34;5365091;32;34376;-71
2022/01/18 13:51:34;;;;;;;11.10;3.17;;;;;;;6.28;44.72;102062.53;5364027;32;33256;-73
2022/01/18 13:54:42;;;;;;;10.87;3.10;;;;;;;5.77;46.45;102070.87;5357856;32;32973;-76
2022/01/18 13:57:57;;;;;;;17.03;3.10;;;;;;;6.46;44.91;102064.37;5345946;32;36290;-71
2022/01/18 14:01:09;;;;;;;12.33;2.90;;;;;;;6.31;44.39;102062.56;5371987;32;35965;-72
2022/01/18 14:04:19;;;;;;;9.57;3.63;;;;;;;6.76;43.14;102079.28;5352831;32;34559;-76
2022/01/18 14:07:26;;;;;;;7.83;2.70;;;;;;;6.20;44.48;102072.94;5360276;32;44600;-78
2022/01/18 14:10:30;;;;;;;9.17;3.10;;;;;;;6.21;44.39;102063.38;5358200;32;35572;-78
2022/01/18 14:13:37;;;;;;;12.57;2.77;;;;;;;5.31;45.42;102066.16;5351581;32;34516;-70
2022/01/18 14:16:46;;;;;;;11.23;2.47;;;;;;;6.39;44.08;102049.53;5363125;32;35901;-78
2022/01/18 14:19:51;;;;;;;9.83;2.70;;;;;;;6.61;42.94;102050.50;5355566;32;44257;-78
2022/01/18 14:22:56;;;;;;;8.00;2.70;;;;;;;5.42;45.55;102059.31;5355445;32;35385;-72
2022/01/18 14:25:58;;;;;;;11.33;3.17;;;;;;;4.86;46.63;102058.75;5361361;32;36699;-76
2022/01/18 14:29:01;;;;;;;9.00;2.73;;;;;;;6.15;43.88;102061.59;5346705;32;34358;-78
2022/01/18 14:32:04;;;;;;;8.97;2.83;;;;;;;4.65;47.30;102063.72;5347803;32;35728;-73
2022/01/18 14:35:19;;;;;;;10.27;2.90;;;;;;;4.62;47.44;102072.34;5357392;32;35836;-80
2022/01/18 14:38:28;;;;;;;11.93;3.10;;;;;;;5.40;45.75;102068.84;5365196;32;44325;-75
2022/01/18 14:41:31;;;;;;;10.50;3.20;;;;;;;4.56;47.22;102082.69;5351816;32;35826;-71
2022/01/18 14:44:59;;;;;;;11.83;3.17;;;;;;;4.52;47.55;102078.31;5375491;32;34635;-77
2022/01/18 14:48:07;;;;;;;10.43;2.60;;;;;;;5.03;46.77;102075.44;5361633;32;34444;-78
2022/01/18 14:51:15;;;;;;;12.40;3.13;;;;;;;4.51;48.14;102076.56;5336309;32;34629;-76
2022/01/18 14:54:20;;;;;;;9.50;3.43;;;;;;;4.71;47.40;102075.09;5344820;32;44181;-73
2022/01/18 14:57:27;;;;;;;14.17;3.70;;;;;;;5.14;46.84;102075.53;5312232;32;34597;-75
2022/01/18 15:00:34;;;;;;;11.33;3.00;;;;;;;4.76;47.16;102062.09;5341727;32;34775;-79
2022/01/18 15:03:37;;;;;;;12.35;3.33;;;;;;;4.31;48.92;102064.13;5335652;32;34486;-76
2022/01/18 15:06:40;;;;;;;11.93;4.25;;;;;;;4.18;49.26;102074.37;5359819;32;34394;-76
2022/01/18 15:09:43;;;;;;;15.10;3.73;;;;;;;4.20;49.02;102083.09;5363473;32;34470;-75
2022/01/18 15:12:47;;;;;;;17.03;3.30;;;;;;;4.01;50.27;102082.81;5340683;32;35663;-76
2022/01/18 15:15:49;;;;;;;14.52;3.45;;;;;;;3.61;50.53;102089.12;5355782;32;44502;-75
2022/01/18 15:18:51;;;;;;;12.60;3.50;;;;;;;3.69;50.24;102087.53;5362567;32;33514;-76
2022/01/18 15:21:54;;;;;;;9.00;3.10;;;;;;;3.73;50.53;102114.44;5353713;32;34263;-75
2022/01/18 15:24:58;;;;;;;12.63;4.03;;;;;;;3.59;50.55;102111.63;5364587;32;35800;-75
2022/01/18 15:28:00;;;;;;;10.75;3.20;;;;;;;3.92;49.90;102118.22;5364707;32;35488;-75
2022/01/18 15:31:03;;;;;;;13.73;3.23;;;;;;;3.38;51.39;102126.84;5375533;32;33692;-75
2022/01/18 15:34:07;;;;;;;13.87;4.23;;;;;;;3.44;51.52;102127.84;5366978;32;35799;-77
2022/01/18 15:37:10;;;;;;;14.83;3.53;;;;;;;4.30;48.71;102131.81;5364589;32;35094;-75
2022/01/18 15:40:13;;;;;;;13.77;4.03;;;;;;;3.65;50.63;102121.25;5372542;32;34772;-75
2022/01/18 15:43:16;;;;;;;12.90;4.80;;;;;;;4.51;48.62;102118.25;5368944;32;34602;-76
2022/01/18 15:46:19;;;;;;;10.45;3.17;;;;;;;4.64;48.51;102114.94;5369969;32;46493;-75
2022/01/18 15:49:23;;;;;;;11.38;3.90;;;;;;;4.25;49.35;102134.38;5361375;32;36704;-75
2022/01/18 15:52:25;;;;;;;;;;;;;;;4.69;48.61;102136.69;5372243;32;36610;-75
2022/01/18 15:55:28;;;;;;;11.70;4.43;;;;;;;4.55;48.68;102151.25;5342447;32;35833;-76
2022/01/18 15:58:33;;;;;;;15.60;3.67;;;;;;;4.82;48.05;102153.34;5371234;32;35702;-75